Norwalk, Connecticut
Current Conditions -  °F | °C
As of 6:52 AM on Friday 28 Nov 2014 (Local Time) from KBDR Reporting Station
Clear Clear  
Wind Chill: 20°   Ceiling: Unl
Heat Index: 29°   Visibility: 10mi
Dew Point: 24°   Wind: 10mph
Humidity: 82%   Direction: 300°WNW
Pressure: 30.1"   Gusts: NA
Location:  41.11°N, 73.41°W
Report Text: KBDR 281152Z 30009KT 10SM CLR M02/M04 A3010 RMK AO2 SLP193 70001 T10171044 10006 21017 53017
Loading
Personal Weather Stations






























Interactive Weather Map New forecast layout! Learn more

10-Day Weather Forecast

Advertisements
Track Severe Weather on mobile